« あいち航空ミュージアム 名古屋飛行場 2017/12/8 fri | トップページ | 美ら島エアーフェスタ2017【初日1】 那覇空港 2017/12/9 sat »

2017/12/14

定点 富山空港 2017/12/14 thu

沖縄から帰ってくる頃からゆきーぐにーとなっていましたが、少し小康状態となりました。ただ、うねりが強く、豪快に波が砕けていました。

20171214_rjnt_00sea

RJNT 132350Z 00000KT 4000 -SHSN FEW003 SCT010 BKN030 01/00 Q1027 RMK 1ST003 3CU010 6CU030 A3034

20171214_rjnt_01ja53an

天頂は雲が切れて、青空の下アプローチングうるし

20171214_rjnt_02ja53an

ANA313 RJTT-RJNT JA53AN B737-881

RJNT 140000Z 00000KT 7000 -SHSN FEW003 SCT010 BKN030 01/00 Q1027

20171214_rjnt_03ja53an

なんとか河原に降りれました・・

20171214_rjnt_04ja53an

20171214_rjnt_05ja53an

ANA316 RJNT-RJTT JA53AN B737-881

綺麗に羽衣を引いて離陸です。

RJNT 140100Z 20005KT 9999 -SHSN FEW004 SCT030 BKN070 02/00 Q1027

20171214_rjnt_06ja56an

20171214_rjnt_07ja56an

ANA315 RJTT-RJNT JA56AN B737-881

RJNT 140200Z 22003KT 9999 -SHSN FEW008 SCT030 BKN040 02/00 Q1027

20171214_rjnt_08ja6768

JA6768 B412EP 富山県消防防災

砺波方面で訓練してきた模様

20171214_rjnt_09ja56an

20171214_rjnt_10ja56an

ANA1181 RJNT-RJCC JA56AN B737-881

RJNT 140300Z 22003KT 9999 -SHSN FEW008 SCT030 BKN070 03/00 Q1026

20171214_rjnt_11b18658

お昼頃は落ち着いています。

20171214_rjnt_12b18658

遠くでも雪レフ

20171214_rjnt_13b18658

CAL170 RCTP-RJNT B-18658 B737-8SH

RJNT 140400Z 24004KT 9999 VCSH FEW008 SCT040 BKN070 03/00 Q1026

20171214_rjnt_14b18658

だれか台湾に連れて行って・・

20171214_rjnt_15b18658

CAL171 RJNT-RCTP B-18658 B737-8SH

一ヶ月ぶりの定点。12月に入ってB737-700がちょくちょく入っていたり、A321が来たりでずか、今日はいたってノーマル。

|

« あいち航空ミュージアム 名古屋飛行場 2017/12/8 fri | トップページ | 美ら島エアーフェスタ2017【初日1】 那覇空港 2017/12/9 sat »

富山空港」カテゴリの記事

コメント

コメントを書く



(ウェブ上には掲載しません)


コメントは記事投稿者が公開するまで表示されません。



トラックバック


この記事へのトラックバック一覧です: 定点 富山空港 2017/12/14 thu:

« あいち航空ミュージアム 名古屋飛行場 2017/12/8 fri | トップページ | 美ら島エアーフェスタ2017【初日1】 那覇空港 2017/12/9 sat »